Time;durP1;ratioP1;P1;durP2;ratioP2;P2;SDS_P1;SDS_P2;PMS_P1;PMS_P2;Temp;Humidity;BMP_temperature;BMP_pressure;BME280_temperature;BME280_humidity;BME280_pressure;Samples;Min_cycle;Max_cycle;Signal;HPM_P1;HPM_P2
2022/12/23 00:00:23;;;;;;;5.07;1.03;;;;;;;9.01;100.00;97127.59;5072246;28;20235;-75
2022/12/23 00:02:49;;;;;;;2.07;0.97;;;;;;;9.00;100.00;97110.94;5072793;28;20573;-77
2022/12/23 00:05:16;;;;;;;3.17;0.80;;;;;;;9.02;100.00;97108.19;5072640;28;20208;-75
2022/12/23 00:07:43;;;;;;;1.73;1.10;;;;;;;9.04;100.00;97114.16;5072541;28;20235;-75
2022/12/23 00:10:11;;;;;;;1.73;1.00;;;;;;;9.03;100.00;97117.78;5072342;28;20636;-75
2022/12/23 00:15:23;;;;;;;2.60;1.00;;;;;;;9.04;100.00;97124.72;5072589;28;20605;-76
2022/12/23 00:17:49;;;;;;;3.90;1.10;;;;;;;9.01;100.00;97117.06;5072600;28;20240;-77
2022/12/23 00:20:16;;;;;;;4.97;1.73;;;;;;;9.08;100.00;97126.16;5071829;28;20224;-77
2022/12/23 00:25:40;;;;;;;2.77;1.20;;;;;;;9.09;100.00;97114.66;5073267;28;20292;-76
2022/12/23 00:28:06;;;;;;;2.03;0.87;;;;;;;9.08;100.00;97115.63;5072841;28;20260;-75
2022/12/23 00:30:34;;;;;;;0.93;0.80;;;;;;;9.13;100.00;97110.81;5072386;28;20211;-77
2022/12/23 00:33:01;;;;;;;2.60;0.90;;;;;;;9.15;100.00;97095.72;5072254;28;20212;-76
2022/12/23 00:35:29;;;;;;;1.87;1.00;;;;;;;9.18;100.00;97095.47;5071907;28;20562;-77
2022/12/23 00:37:56;;;;;;;3.07;0.90;;;;;;;9.21;100.00;97111.03;5072207;28;20647;-76
2022/12/23 00:43:07;;;;;;;4.50;0.80;;;;;;;9.16;100.00;97103.50;5072042;28;20248;-76
2022/12/23 00:45:34;;;;;;;1.70;0.90;;;;;;;9.14;100.00;97102.81;5072233;28;20312;-76
2022/12/23 00:50:53;;;;;;;1.80;0.80;;;;;;;9.20;100.00;97109.38;5046435;28;20197;-76
2022/12/23 00:53:20;;;;;;;1.27;0.70;;;;;;;9.20;100.00;97104.09;5071422;28;20211;-77
2022/12/23 00:55:47;;;;;;;1.47;0.83;;;;;;;9.22;100.00;97107.44;5071599;28;20209;-77
2022/12/23 00:58:14;;;;;;;2.13;0.90;;;;;;;9.28;100.00;97113.06;5071398;28;20231;-76
2022/12/23 01:06:21;;;;;;;1.23;0.90;;;;;;;9.30;100.00;97120.88;5063879;28;20240;-78
2022/12/23 01:08:48;;;;;;;2.00;0.80;;;;;;;9.33;100.00;97126.72;5070846;28;20229;-76
2022/12/23 01:11:14;;;;;;;1.30;0.90;;;;;;;9.38;100.00;97134.25;5071223;28;20207;-76
2022/12/23 01:13:41;;;;;;;2.70;1.10;;;;;;;9.38;100.00;97129.84;5071608;28;20219;-77
2022/12/23 01:16:11;;;;;;;1.00;0.77;;;;;;;9.42;100.00;97135.72;5071285;28;20214;-77
2022/12/23 01:18:37;;;;;;;2.80;0.77;;;;;;;9.53;100.00;97133.00;5071196;28;20230;-76
2022/12/23 01:21:05;;;;;;;1.37;0.77;;;;;;;9.51;100.00;97145.50;5070866;28;20604;-76
2022/12/23 01:23:32;;;;;;;1.13;0.70;;;;;;;9.50;100.00;97135.91;5071105;28;20210;-76
2022/12/23 01:26:00;;;;;;;1.27;0.70;;;;;;;9.55;100.00;97144.31;5071314;28;20336;-78
2022/12/23 01:28:31;;;;;;;1.70;0.80;;;;;;;9.57;100.00;97152.91;5070966;28;20239;-77
2022/12/23 01:30:59;;;;;;;1.70;0.87;;;;;;;9.55;100.00;97146.94;5070921;28;20240;-76
2022/12/23 01:33:26;;;;;;;1.43;0.70;;;;;;;9.60;100.00;97152.69;5071098;28;20211;-77
2022/12/23 01:35:59;;;;;;;1.27;0.60;;;;;;;9.66;100.00;97152.19;5070957;28;20699;-77
2022/12/23 01:38:26;;;;;;;1.57;0.70;;;;;;;9.66;100.00;97152.19;5071133;28;20230;-77
2022/12/23 01:40:52;;;;;;;0.70;0.53;;;;;;;9.67;100.00;97156.50;5070831;28;20235;-77
2022/12/23 01:43:19;;;;;;;1.23;0.63;;;;;;;9.71;100.00;97152.63;5070983;28;20209;-75
2022/12/23 01:45:45;;;;;;;1.07;0.60;;;;;;;9.70;100.00;97158.88;5071037;28;20210;-76
2022/12/23 01:48:15;;;;;;;1.10;0.60;;;;;;;9.75;100.00;97160.19;5070765;28;20599;-75
2022/12/23 01:50:48;;;;;;;0.67;0.53;;;;;;;9.82;100.00;97160.53;5070811;28;20231;-76
2022/12/23 01:53:19;;;;;;;2.30;0.83;;;;;;;9.76;100.00;97155.75;5071059;28;20209;-77
2022/12/23 01:55:49;;;;;;;0.80;0.60;;;;;;;9.77;100.00;97160.06;5070885;28;20208;-77
2022/12/23 01:58:20;;;;;;;1.13;0.60;;;;;;;9.78;100.00;97165.22;5070931;28;20609;-77
2022/12/23 02:03:43;;;;;;;0.90;0.70;;;;;;;9.75;100.00;97177.81;5070847;28;20217;-77
2022/12/23 02:09:19;;;;;;;1.63;0.70;;;;;;;9.81;100.00;97187.88;5070503;28;20334;-77
2022/12/23 02:12:16;;;;;;;0.50;0.50;;;;;;;9.81;100.00;97195.78;5070937;28;20217;-77
2022/12/23 02:18:04;;;;;;;1.60;0.60;;;;;;;9.88;100.00;97207.53;5070689;28;20252;-74
2022/12/23 02:20:49;;;;;;;1.50;0.60;;;;;;;9.89;100.00;97203.91;5070434;28;20231;-78
2022/12/23 02:23:48;;;;;;;0.67;0.50;;;;;;;9.89;100.00;97217.13;5070677;28;20207;-77
2022/12/23 02:26:35;;;;;;;0.63;0.50;;;;;;;9.89;100.00;97214.47;5070632;28;20215;-76
2022/12/23 02:29:22;;;;;;;1.27;0.53;;;;;;;9.90;100.00;97232.84;5070226;28;20238;-76
2022/12/23 02:31:58;;;;;;;1.43;0.60;;;;;;;9.93;100.00;97215.91;5070613;28;20213;-76
2022/12/23 02:34:32;;;;;;;0.80;0.50;;;;;;;9.95;100.00;97224.53;5070530;28;20225;-76
2022/12/23 02:37:05;;;;;;;0.50;0.50;;;;;;;9.96;100.00;97223.56;5073695;28;20228;-75
2022/12/23 02:39:39;;;;;;;1.13;0.57;;;;;;;9.99;100.00;97236.53;5073837;28;20590;-76
2022/12/23 02:42:11;;;;;;;0.60;0.57;;;;;;;10.01;100.00;97234.59;5074141;28;20211;-77
2022/12/23 02:44:43;;;;;;;0.60;0.60;;;;;;;10.01;100.00;97240.72;5074077;28;20212;-77
2022/12/23 02:47:17;;;;;;;0.63;0.50;;;;;;;10.00;100.00;97236.41;5074036;28;20224;-77
2022/12/23 02:49:51;;;;;;;0.50;0.50;;;;;;;10.07;100.00;97244.69;5073574;28;20214;-76
2022/12/23 02:52:21;;;;;;;1.20;0.50;;;;;;;10.02;100.00;97254.75;5073993;28;20560;-77
2022/12/23 02:54:51;;;;;;;0.50;0.50;;;;;;;10.06;100.00;97253.59;5074118;28;20212;-78
2022/12/23 02:57:23;;;;;;;0.70;0.40;;;;;;;10.18;100.00;97264.00;5073948;28;20229;-76
2022/12/23 02:59:52;;;;;;;0.50;0.40;;;;;;;10.20;100.00;97250.66;5073618;28;20243;-77
2022/12/23 03:02:19;;;;;;;0.47;0.40;;;;;;;10.22;100.00;97249.56;5073942;28;20223;-75
2022/12/23 03:04:46;;;;;;;0.93;0.33;;;;;;;10.28;100.00;97254.34;5073792;28;20564;-75
2022/12/23 03:07:17;;;;;;;0.33;0.33;;;;;;;10.30;100.00;97246.31;5073609;28;20239;-76
2022/12/23 03:09:51;;;;;;;0.40;0.30;;;;;;;10.41;100.00;97248.91;5073301;28;20308;-76
2022/12/23 03:12:27;;;;;;;0.20;0.20;;;;;;;10.51;100.00;97257.75;5073795;28;20227;-77
2022/12/23 03:15:17;;;;;;;0.30;0.30;;;;;;;10.60;100.00;97255.19;5073613;28;20210;-76
2022/12/23 03:17:58;;;;;;;0.30;0.30;;;;;;;10.64;100.00;97250.50;5073340;28;20228;-75
2022/12/23 03:20:31;;;;;;;0.30;0.30;;;;;;;10.64;100.00;97261.06;5073069;28;20707;-76
2022/12/23 03:23:03;;;;;;;0.33;0.33;;;;;;;10.72;100.00;97274.47;5073399;28;20219;-75
2022/12/23 03:25:35;;;;;;;0.30;0.30;;;;;;;10.72;100.00;97275.31;5073427;28;20221;-75
2022/12/23 03:28:11;;;;;;;0.40;0.40;;;;;;;10.73;100.00;97277.00;5073099;28;20590;-75
2022/12/23 03:30:43;;;;;;;0.90;0.60;;;;;;;10.70;100.00;97279.06;5072954;28;20199;-76
2022/12/23 03:33:15;;;;;;;0.30;0.30;;;;;;;10.76;100.00;97282.00;5073342;28;20302;-77
2022/12/23 03:35:47;;;;;;;0.33;0.30;;;;;;;10.79;100.00;97280.91;5073156;28;20221;-75
2022/12/23 03:38:17;;;;;;;2.30;0.70;;;;;;;10.81;100.00;97286.91;5073078;28;20235;-76
2022/12/23 03:40:47;;;;;;;1.50;0.50;;;;;;;10.79;100.00;97287.06;5072493;28;20703;-75
2022/12/23 03:43:20;;;;;;;0.30;0.30;;;;;;;10.76;100.00;97286.47;5073219;28;20601;-76
2022/12/23 03:45:53;;;;;;;0.20;0.20;;;;;;;10.72;100.00;97290.31;5073170;28;20203;-76
2022/12/23 03:48:26;;;;;;;0.30;0.30;;;;;;;10.65;100.00;97299.72;5072266;28;20594;-76
2022/12/23 03:50:58;;;;;;;0.30;0.30;;;;;;;10.64;100.00;97298.06;5073033;28;20206;-76
2022/12/23 03:53:30;;;;;;;0.30;0.30;;;;;;;10.64;100.00;97295.41;5073175;28;20457;-75
2022/12/23 03:56:00;;;;;;;1.90;0.53;;;;;;;10.65;100.00;97294.44;5073418;28;20600;-77
2022/12/23 03:58:35;;;;;;;0.50;0.30;;;;;;;10.63;100.00;97306.91;5073167;28;20232;-76
2022/12/23 04:01:09;;;;;;;1.90;0.40;;;;;;;10.57;100.00;97307.44;5073073;28;20243;-76
2022/12/23 04:03:46;;;;;;;0.77;0.30;;;;;;;10.50;100.00;97311.53;5073150;28;20210;-77
2022/12/23 04:06:17;;;;;;;0.50;0.43;;;;;;;10.46;100.00;97310.13;5072920;28;20682;-77
2022/12/23 04:08:46;;;;;;;0.60;0.40;;;;;;;10.47;100.00;97306.53;5072499;28;20241;-76
2022/12/23 04:11:13;;;;;;;0.40;0.40;;;;;;;10.48;100.00;97305.56;5072187;28;20225;-76
2022/12/23 04:13:39;;;;;;;0.50;0.50;;;;;;;10.54;100.00;97308.53;5072334;28;20212;-76
2022/12/23 04:16:07;;;;;;;0.40;0.40;;;;;;;10.61;100.00;97301.78;5072178;28;20215;-76
2022/12/23 04:18:33;;;;;;;0.50;0.50;;;;;;;10.65;100.00;97302.38;5072005;28;20231;-76
2022/12/23 04:21:01;;;;;;;0.50;0.40;;;;;;;10.62;100.00;97310.53;5072108;28;20265;-75
2022/12/23 04:23:27;;;;;;;0.60;0.60;;;;;;;10.57;100.00;97305.63;5072222;28;20570;-77
2022/12/23 04:25:54;;;;;;;0.60;0.60;;;;;;;10.58;100.00;97309.13;5072232;28;20578;-76
2022/12/23 04:28:20;;;;;;;0.77;0.50;;;;;;;10.60;100.00;97307.19;5071862;28;20239;-77
2022/12/23 04:30:47;;;;;;;1.30;0.70;;;;;;;10.63;100.00;97323.63;5071502;28;20207;-76
2022/12/23 04:33:13;;;;;;;1.00;0.70;;;;;;;10.68;100.00;97321.44;5072491;28;20215;-76
2022/12/23 04:35:40;;;;;;;1.37;0.60;;;;;;;10.74;100.00;97331.53;5071963;28;20217;-75
2022/12/23 04:38:07;;;;;;;0.60;0.60;;;;;;;10.71;100.00;97315.91;5072027;28;20579;-77
2022/12/23 04:40:34;;;;;;;0.73;0.73;;;;;;;10.64;100.00;97324.47;5071582;28;20232;-77
2022/12/23 04:43:00;;;;;;;0.60;0.60;;;;;;;10.55;100.00;97325.22;5071649;28;20218;-77
2022/12/23 04:45:27;;;;;;;1.03;0.80;;;;;;;10.48;100.00;97326.69;5071582;28;20714;-76
2022/12/23 04:47:54;;;;;;;0.80;0.80;;;;;;;10.47;100.00;97341.69;5071503;28;20235;-77
2022/12/23 04:50:20;;;;;;;2.60;0.97;;;;;;;10.43;100.00;97342.06;5071477;28;20265;-76
2022/12/23 04:52:47;;;;;;;0.90;0.83;;;;;;;10.44;100.00;97349.88;5071773;28;20213;-76
2022/12/23 04:55:15;;;;;;;1.00;0.90;;;;;;;10.45;100.00;97342.81;5071595;28;20208;-77
2022/12/23 04:57:41;;;;;;;1.50;1.13;;;;;;;10.42;100.00;97341.25;5071454;28;20239;-76
2022/12/23 05:00:09;;;;;;;2.20;1.00;;;;;;;10.37;100.00;97353.13;5070905;28;20595;-77
2022/12/23 05:02:36;;;;;;;1.10;0.90;;;;;;;10.32;100.00;97350.88;5071601;28;20211;-78
2022/12/23 05:05:02;;;;;;;1.50;0.80;;;;;;;10.26;100.00;97366.34;5071422;28;20219;-76
2022/12/23 05:07:29;;;;;;;1.10;0.93;;;;;;;10.27;100.00;97374.16;5071447;28;20227;-76
2022/12/23 05:10:00;;;;;;;0.90;0.90;;;;;;;10.34;100.00;97363.94;5071201;28;20211;-76
2022/12/23 05:12:28;;;;;;;1.10;1.00;;;;;;;10.38;100.00;97365.38;5071594;28;20199;-76
2022/12/23 05:14:55;;;;;;;2.07;1.20;;;;;;;10.42;100.00;97372.09;5071206;28;20673;-77
2022/12/23 05:17:21;;;;;;;1.77;1.10;;;;;;;10.46;100.00;97357.69;5071230;28;20230;-77
2022/12/23 05:19:48;;;;;;;1.77;1.10;;;;;;;10.45;100.00;97372.69;5071029;28;20686;-76
2022/12/23 05:22:14;;;;;;;1.50;1.40;;;;;;;10.47;100.00;97385.78;5071166;28;20703;-76
2022/12/23 05:24:41;;;;;;;0.90;0.90;;;;;;;10.49;100.00;97381.19;5071370;28;20215;-77
2022/12/23 05:27:07;;;;;;;1.43;1.10;;;;;;;10.48;100.00;97383.00;5086709;22;20231;-79
2022/12/23 05:29:35;;;;;;;1.80;1.00;;;;;;;10.47;100.00;97381.31;5050461;28;20655;-80
2022/12/23 05:32:01;;;;;;;1.30;1.10;;;;;;;10.46;100.00;97384.09;5051492;28;20216;-80
2022/12/23 05:34:28;;;;;;;0.90;0.90;;;;;;;10.49;100.00;97383.84;5051235;28;20218;-80
2022/12/23 05:36:54;;;;;;;1.73;1.10;;;;;;;10.48;100.00;97377.72;5050862;28;20200;-80
2022/12/23 05:39:21;;;;;;;1.30;1.00;;;;;;;10.45;100.00;97374.50;5050658;28;20266;-79
2022/12/23 05:41:47;;;;;;;1.20;0.80;;;;;;;10.46;100.00;97368.25;5050850;28;20232;-80
2022/12/23 05:44:14;;;;;;;1.27;1.00;;;;;;;10.45;100.00;97374.50;5051079;28;20211;-80
2022/12/23 05:46:41;;;;;;;0.80;0.80;;;;;;;10.48;100.00;97380.38;5051010;28;20245;-80
2022/12/23 05:49:08;;;;;;;0.80;0.80;;;;;;;10.49;100.00;97389.97;5050508;28;20238;-80
2022/12/23 05:51:34;;;;;;;1.20;1.10;;;;;;;10.53;100.00;97390.56;5050808;28;20210;-80
2022/12/23 05:54:01;;;;;;;1.70;0.93;;;;;;;10.55;100.00;97389.47;5050684;28;20586;-80
2022/12/23 05:56:27;;;;;;;0.90;0.90;;;;;;;10.59;100.00;97400.63;5050671;28;20218;-80
2022/12/23 05:58:54;;;;;;;1.63;0.97;;;;;;;10.63;100.00;97399.41;5050393;28;20302;-80
2022/12/23 06:01:20;;;;;;;1.00;0.90;;;;;;;10.70;100.00;97393.50;5050681;28;20239;-80
2022/12/23 06:03:48;;;;;;;1.17;0.90;;;;;;;10.72;100.00;97393.38;5050752;28;20222;-80
2022/12/23 06:06:14;;;;;;;0.80;0.60;;;;;;;10.74;100.00;97399.38;5050731;28;20223;-80
2022/12/23 06:08:41;;;;;;;0.70;0.70;;;;;;;10.71;100.00;97399.66;5050421;28;20236;-80
2022/12/23 06:11:07;;;;;;;0.80;0.80;;;;;;;10.70;100.00;97400.63;5052737;28;20215;-80
2022/12/23 06:13:34;;;;;;;0.93;0.93;;;;;;;10.70;100.00;97403.25;5054613;28;20209;-80
2022/12/23 06:16:00;;;;;;;1.97;1.00;;;;;;;10.69;100.00;97406.84;5054527;28;20587;-80
2022/12/23 06:18:27;;;;;;;1.50;1.10;;;;;;;10.68;100.00;97410.44;5054383;28;20231;-80
2022/12/23 06:20:55;;;;;;;1.07;0.97;;;;;;;10.68;100.00;97406.00;5053982;28;20237;-80
2022/12/23 06:23:21;;;;;;;1.00;0.80;;;;;;;10.71;100.00;97407.56;5054292;28;20667;-80
2022/12/23 06:25:47;;;;;;;0.77;0.73;;;;;;;10.71;100.00;97407.56;5054452;28;20581;-80
2022/12/23 06:28:14;;;;;;;0.87;0.77;;;;;;;10.74;100.00;97409.94;5054110;28;20242;-80
2022/12/23 06:30:40;;;;;;;1.00;0.70;;;;;;;10.76;100.00;97414.16;5053995;28;20216;-80
2022/12/23 06:33:07;;;;;;;0.77;0.77;;;;;;;10.81;100.00;97413.78;5054181;28;20212;-80
2022/12/23 06:35:33;;;;;;;0.63;0.63;;;;;;;10.80;100.00;97412.09;5054163;28;20683;-80
2022/12/23 06:38:01;;;;;;;0.50;0.50;;;;;;;10.86;100.00;97422.16;5054041;28;20239;-80
2022/12/23 06:40:28;;;;;;;1.00;0.80;;;;;;;10.89;100.00;97417.47;5053949;28;20217;-80
2022/12/23 06:42:55;;;;;;;0.70;0.70;;;;;;;10.93;100.00;97410.13;5054006;28;20218;-80
2022/12/23 06:45:21;;;;;;;0.90;0.73;;;;;;;10.93;100.00;97410.13;5053903;28;20218;-80
2022/12/23 06:47:48;;;;;;;1.47;0.60;;;;;;;10.94;100.00;97417.13;5054029;28;20238;-80
2022/12/23 06:50:14;;;;;;;0.97;0.80;;;;;;;10.91;100.00;97414.72;5053356;28;20215;-80
2022/12/23 06:52:41;;;;;;;1.53;0.80;;;;;;;10.92;100.00;97419.03;5053757;28;20204;-80
2022/12/23 06:55:09;;;;;;;0.97;0.77;;;;;;;10.92;100.00;97422.53;5053951;28;20216;-80
2022/12/23 06:57:36;;;;;;;0.80;0.80;;;;;;;10.90;100.00;97420.97;5054011;28;20232;-80
2022/12/23 07:00:03;;;;;;;0.87;0.83;;;;;;;10.88;100.00;97429.00;5053558;28;20220;-80
2022/12/23 07:02:30;;;;;;;0.60;0.60;;;;;;;10.81;100.00;97432.28;5053570;28;20235;-80
2022/12/23 07:04:56;;;;;;;0.70;0.70;;;;;;;10.79;100.00;97439.50;5053504;28;20215;-80
2022/12/23 07:07:23;;;;;;;1.23;0.80;;;;;;;10.77;100.00;97441.44;5053507;28;20612;-80
2022/12/23 07:09:49;;;;;;;1.53;0.87;;;;;;;10.74;100.00;97441.66;5053301;28;20227;-80
2022/12/23 07:12:18;;;;;;;0.97;0.90;;;;;;;10.72;100.00;97444.47;5053703;28;20210;-80
2022/12/23 07:14:44;;;;;;;0.60;0.60;;;;;;;10.69;100.00;97444.69;5053701;28;20239;-80
2022/12/23 07:17:11;;;;;;;0.97;0.90;;;;;;;10.67;100.00;97443.97;5053376;28;20218;-80
2022/12/23 07:19:37;;;;;;;0.77;0.77;;;;;;;10.67;100.00;97438.69;5053147;28;20270;-80
2022/12/23 07:22:04;;;;;;;1.40;1.13;;;;;;;10.63;100.00;97441.69;5053332;28;20574;-80
2022/12/23 07:24:30;;;;;;;1.07;0.97;;;;;;;10.64;100.00;97438.94;5053370;28;20209;-81
2022/12/23 07:26:57;;;;;;;1.60;1.03;;;;;;;10.68;100.00;97436.88;5053379;28;20208;-80
2022/12/23 07:29:25;;;;;;;1.47;1.10;;;;;;;10.57;100.00;97439.53;5052977;28;20213;-80
2022/12/23 07:31:52;;;;;;;1.40;1.20;;;;;;;10.52;100.00;97436.44;5053202;28;20205;-80
2022/12/23 07:34:18;;;;;;;0.93;0.93;;;;;;;10.50;100.00;97447.13;5053390;28;20268;-80
2022/12/23 07:36:45;;;;;;;1.10;1.00;;;;;;;10.50;100.00;97451.56;5053524;28;20218;-80
2022/12/23 07:39:11;;;;;;;1.30;1.20;;;;;;;10.60;100.00;97439.31;5053033;28;20225;-80
2022/12/23 07:41:38;;;;;;;1.37;1.27;;;;;;;10.59;100.00;97443.75;5053363;28;20243;-80
2022/12/23 07:44:04;;;;;;;1.53;1.20;;;;;;;10.56;100.00;97453.72;5053375;28;20208;-79
2022/12/23 07:46:32;;;;;;;1.53;1.33;;;;;;;10.56;100.00;97445.78;5053100;28;20488;-80
2022/12/23 07:48:59;;;;;;;2.00;1.30;;;;;;;10.54;100.00;97447.72;5052785;28;20235;-77
2022/12/23 07:51:25;;;;;;;1.63;1.40;;;;;;;10.58;100.00;97441.25;5052951;28;20298;-80
2022/12/23 07:53:52;;;;;;;1.10;1.00;;;;;;;10.66;100.00;97444.09;5053050;28;20514;-78
2022/12/23 07:56:19;;;;;;;1.93;1.20;;;;;;;10.65;100.00;97439.78;5052823;28;20216;-78
2022/12/23 07:58:48;;;;;;;2.77;1.60;;;;;;;10.58;100.00;97451.81;5052559;28;20738;-79
2022/12/23 08:01:14;;;;;;;2.90;1.30;;;;;;;10.58;100.00;97452.63;5052620;28;20258;-78
2022/12/23 08:03:42;;;;;;;2.73;1.60;;;;;;;10.62;100.00;97450.56;5052881;28;20232;-78
2022/12/23 08:06:11;;;;;;;1.90;1.13;;;;;;;10.61;100.00;97451.56;5052702;28;20673;-80
2022/12/23 08:08:39;;;;;;;1.43;1.20;;;;;;;10.59;100.00;97458.78;5052558;28;20231;-81
2022/12/23 08:11:07;;;;;;;1.60;1.50;;;;;;;10.63;100.00;97460.19;5052294;28;20218;-83
2022/12/23 08:13:36;;;;;;;1.90;1.67;;;;;;;10.66;100.00;97471.38;5052138;28;20218;-82
2022/12/23 08:16:04;;;;;;;3.90;1.90;;;;;;;10.64;100.00;97472.47;5052170;28;20299;-80
2022/12/23 08:18:32;;;;;;;2.50;2.00;;;;;;;10.64;100.00;97472.47;5052435;28;20507;-81
2022/12/23 08:21:01;;;;;;;2.97;1.63;;;;;;;10.68;100.00;97479.16;5051906;28;20216;-80
2022/12/23 08:23:29;;;;;;;3.13;1.60;;;;;;;10.66;100.00;97465.25;5051819;28;20205;-80
2022/12/23 08:26:00;;;;;;;1.70;1.50;;;;;;;10.66;100.00;97466.09;5051585;28;20214;-80
2022/12/23 08:28:27;;;;;;;2.20;1.50;;;;;;;10.69;100.00;97470.25;5051799;28;20364;-79
2022/12/23 08:30:54;;;;;;;1.73;1.63;;;;;;;10.69;100.00;97475.56;5050883;28;20213;-80
2022/12/23 08:33:20;;;;;;;1.63;1.50;;;;;;;10.71;100.00;97471.81;5049688;28;20212;-80
2022/12/23 08:35:47;;;;;;;1.97;1.80;;;;;;;10.69;100.00;97467.63;5050998;28;20216;-80
2022/12/23 08:38:15;;;;;;;2.07;1.90;;;;;;;10.72;100.00;97464.75;5050928;28;20660;-81
2022/12/23 08:40:41;;;;;;;3.43;1.90;;;;;;;10.73;100.00;97461.13;5050966;28;20211;-80
2022/12/23 08:43:08;;;;;;;1.90;1.70;;;;;;;10.74;100.00;97462.81;5051813;28;20235;-79
2022/12/23 08:45:37;;;;;;;2.10;1.60;;;;;;;10.76;100.00;97451.16;5051633;28;20250;-79
2022/12/23 08:48:04;;;;;;;1.67;1.47;;;;;;;10.77;100.00;97441.44;5051554;28;20283;-82
2022/12/23 08:50:30;;;;;;;1.80;1.70;;;;;;;10.77;100.00;97442.25;5051383;28;20215;-82
2022/12/23 08:52:57;;;;;;;3.13;1.60;;;;;;;10.80;100.00;97446.47;5051491;28;20209;-82
2022/12/23 08:55:25;;;;;;;1.60;1.50;;;;;;;10.84;100.00;97453.19;5051484;28;20215;-87
2022/12/23 08:57:51;;;;;;;1.47;1.30;;;;;;;10.88;100.00;97449.34;5051537;28;20229;-82
2022/12/23 09:00:18;;;;;;;1.47;1.27;;;;;;;10.97;100.00;97453.88;5051110;28;20209;-79
2022/12/23 09:02:44;;;;;;;1.87;1.47;;;;;;;11.02;100.00;97457.81;5051032;28;20236;-81
2022/12/23 09:05:11;;;;;;;1.73;1.13;;;;;;;11.07;100.00;97457.47;5051196;28;20203;-82
2022/12/23 09:07:37;;;;;;;2.07;1.13;;;;;;;11.10;100.00;97457.19;5051225;28;20232;-82
2022/12/23 09:10:05;;;;;;;1.43;1.27;;;;;;;11.12;100.00;97464.03;5050913;28;20207;-82
2022/12/23 09:12:34;;;;;;;1.57;1.03;;;;;;;11.15;100.00;97476.16;5051400;28;20292;-82
2022/12/23 09:15:00;;;;;;;1.63;1.40;;;;;;;11.12;100.00;97473.78;5051475;28;20220;-82
2022/12/23 09:17:27;;;;;;;1.50;1.20;;;;;;;11.13;100.00;97471.00;5051413;28;20227;-82
2022/12/23 09:19:53;;;;;;;2.00;1.30;;;;;;;11.11;100.00;97472.09;5050815;28;20763;-82
2022/12/23 09:22:20;;;;;;;2.17;1.30;;;;;;;11.13;100.00;97472.81;5050899;28;20227;-82
2022/12/23 09:24:46;;;;;;;1.60;1.50;;;;;;;11.11;100.00;97466.78;5050755;28;20767;-83
2022/12/23 09:27:13;;;;;;;1.60;1.30;;;;;;;11.12;100.00;97461.38;5050734;28;20730;-83
2022/12/23 09:29:40;;;;;;;1.73;1.37;;;;;;;11.14;100.00;97466.56;5050971;28;20556;-82
2022/12/23 09:32:07;;;;;;;1.43;1.20;;;;;;;11.15;100.00;97462.94;5051019;28;20672;-82
2022/12/23 09:34:33;;;;;;;1.20;1.10;;;;;;;11.18;100.00;97458.25;5050994;28;20674;-83
2022/12/23 09:37:00;;;;;;;1.47;1.20;;;;;;;11.18;100.00;97458.25;5050872;28;20215;-83
2022/12/23 09:39:26;;;;;;;1.60;1.50;;;;;;;11.18;100.00;97439.72;5050459;28;20209;-82
2022/12/23 09:42:02;;;;;;;2.93;1.73;;;;;;;11.17;100.00;97434.56;5050859;28;20229;-83
2022/12/23 09:44:46;;;;;;;1.63;1.13;;;;;;;11.20;100.00;97436.97;5050858;28;20210;-82
2022/12/23 09:47:17;;;;;;;2.07;1.50;;;;;;;11.26;100.00;97423.22;5054592;28;20621;-82
2022/12/23 09:49:48;;;;;;;2.67;1.30;;;;;;;11.24;100.00;97425.16;5054544;28;20210;-82
2022/12/23 09:52:20;;;;;;;1.57;1.30;;;;;;;11.30;100.00;97428.13;5055130;28;20580;-82
2022/12/23 09:54:52;;;;;;;1.80;1.50;;;;;;;11.34;100.00;97436.66;5055074;28;20208;-83
2022/12/23 09:57:22;;;;;;;1.93;1.60;;;;;;;11.37;100.00;97441.72;5054860;28;20243;-83
2022/12/23 10:00:03;;;;;;;1.50;1.40;;;;;;;11.40;100.00;97430.84;5054505;28;20259;-82
2022/12/23 10:02:42;;;;;;;1.53;1.33;;;;;;;11.45;100.00;97433.97;5054784;28;20239;-82
2022/12/23 10:05:20;;;;;;;1.70;1.60;;;;;;;11.47;100.00;97430.22;5054925;28;20206;-83
2022/12/23 10:07:51;;;;;;;1.73;1.63;;;;;;;11.49;100.00;97424.81;5054629;28;20251;-83
2022/12/23 10:10:35;;;;;;;3.10;2.00;;;;;;;11.48;100.00;97423.09;5054296;28;20218;-82
2022/12/23 10:13:05;;;;;;;2.80;1.87;;;;;;;11.46;100.00;97419.75;5054693;28;20211;-82
2022/12/23 10:15:37;;;;;;;3.13;1.90;;;;;;;11.44;100.00;97421.69;5054777;28;20213;-82
2022/12/23 10:18:12;;;;;;;3.83;2.17;;;;;;;11.42;100.00;97408.59;5054487;28;20304;-83
2022/12/23 10:20:45;;;;;;;2.47;2.07;;;;;;;11.42;100.00;97407.75;5054416;28;20215;-83
2022/12/23 10:23:17;;;;;;;2.70;2.10;;;;;;;11.36;100.00;97409.09;5054600;28;20253;-83
2022/12/23 10:25:50;;;;;;;3.70;2.33;;;;;;;11.34;100.00;97420.78;5054311;28;20221;-83
2022/12/23 10:28:17;;;;;;;2.90;2.20;;;;;;;11.46;100.00;97404.72;5054261;28;20230;-79
2022/12/23 10:30:53;;;;;;;4.73;2.60;;;;;;;11.49;100.00;97409.75;5054092;28;20217;-74
2022/12/23 10:33:23;;;;;;;4.17;2.10;;;;;;;11.52;100.00;97411.31;5053839;28;20215;-77
2022/12/23 10:36:01;;;;;;;3.37;2.03;;;;;;;11.51;100.00;97405.19;5054121;28;20697;-88
2022/12/23 10:38:39;;;;;;;2.10;1.90;;;;;;;11.55;100.00;97403.13;5054328;28;20227;-82
2022/12/23 10:41:15;;;;;;;2.63;1.70;;;;;;;11.60;100.00;97400.94;5053814;28;20585;-82
2022/12/23 10:43:59;;;;;;;2.50;1.60;;;;;;;11.64;100.00;97395.28;5052582;28;20566;-80
2022/12/23 10:46:37;;;;;;;1.77;1.40;;;;;;;11.66;100.00;97395.13;5053403;28;20209;-83
2022/12/23 10:49:19;;;;;;;2.47;1.90;;;;;;;11.68;100.00;97395.84;5052880;28;20235;-83
2022/12/23 10:51:50;;;;;;;1.80;1.50;;;;;;;11.68;100.00;97387.91;5049926;28;20208;-83
2022/12/23 10:54:19;;;;;;;2.37;1.67;;;;;;;11.71;100.00;97371.75;5046893;28;20682;-83
2022/12/23 10:56:46;;;;;;;1.40;1.30;;;;;;;11.70;100.00;97380.66;5052600;28;20211;-83
2022/12/23 10:59:15;;;;;;;2.77;1.53;;;;;;;11.67;100.00;97371.19;5052524;28;20234;-82
2022/12/23 11:01:46;;;;;;;2.40;1.80;;;;;;;11.66;100.00;97366.00;5052818;28;20260;-83
2022/12/23 11:04:16;;;;;;;2.53;1.60;;;;;;;11.64;100.00;97360.00;5053176;28;20519;-83
2022/12/23 11:06:46;;;;;;;1.77;1.40;;;;;;;11.62;100.00;97365.44;5052629;28;20246;-83
2022/12/23 11:09:18;;;;;;;2.70;1.53;;;;;;;11.60;100.00;97364.72;5052416;28;20233;-83
2022/12/23 11:11:56;;;;;;;1.70;1.60;;;;;;;11.59;100.00;97362.22;5052215;28;20210;-83
2022/12/23 11:14:31;;;;;;;3.03;1.90;;;;;;;11.57;100.00;97356.19;5052721;28;20213;-83
2022/12/23 11:17:00;;;;;;;2.93;1.80;;;;;;;11.54;100.00;97349.34;5052294;28;20210;-83
2022/12/23 11:19:27;;;;;;;2.73;1.57;;;;;;;11.50;100.00;97352.38;5051000;28;20221;-83
2022/12/23 11:21:55;;;;;;;2.10;1.60;;;;;;;11.49;100.00;97343.59;5051980;28;20210;-84
2022/12/23 11:24:22;;;;;;;2.57;1.80;;;;;;;11.47;100.00;97339.41;5052999;28;20214;-84
2022/12/23 11:26:51;;;;;;;3.90;2.20;;;;;;;11.47;100.00;97342.06;5053207;28;20207;-83
2022/12/23 11:29:23;;;;;;;4.83;1.90;;;;;;;11.40;100.00;97338.25;5081639;22;20225;-83
2022/12/23 11:31:50;;;;;;;1.97;1.70;;;;;;;11.39;100.00;97329.50;5073241;28;20260;-81
2022/12/23 11:34:21;;;;;;;8.37;6.03;;;;;;;11.39;100.00;97320.72;5073503;28;20231;-79
2022/12/23 11:36:54;;;;;;;6.73;3.73;;;;;;;11.40;100.00;97317.09;5073415;28;20217;-82
2022/12/23 11:39:26;;;;;;;2.73;2.40;;;;;;;11.39;100.00;97312.78;5072957;28;20264;-80
2022/12/23 11:42:01;;;;;;;2.73;2.43;;;;;;;11.41;100.00;97300.25;5073082;28;20232;-77
2022/12/23 11:44:31;;;;;;;2.27;1.70;;;;;;;11.42;100.00;97301.91;5073213;28;20213;-80
2022/12/23 11:47:17;;;;;;;3.37;1.90;;;;;;;11.40;100.00;97302.06;5073134;28;20218;-79
2022/12/23 11:49:49;;;;;;;1.77;1.67;;;;;;;11.40;100.00;97301.22;5072938;28;20243;-79
2022/12/23 11:52:19;;;;;;;2.40;1.90;;;;;;;11.43;100.00;97293.03;5072820;28;20215;-80
2022/12/23 11:54:51;;;;;;;2.00;1.77;;;;;;;11.43;100.00;97290.38;5072888;28;20579;-80
2022/12/23 11:57:23;;;;;;;3.00;1.80;;;;;;;11.43;100.00;97299.16;5073044;28;20347;-79
2022/12/23 11:59:55;;;;;;;2.73;1.80;;;;;;;11.43;100.00;97293.03;5072740;28;20204;-80
2022/12/23 12:02:30;;;;;;;3.27;2.10;;;;;;;11.46;100.00;97284.81;5072673;28;20207;-80